createdAt,value
2022-10-07T00:00:55.574Z,13
2022-10-07T00:03:55.420Z,12
2022-10-07T00:05:55.493Z,14
2022-10-07T00:08:55.469Z,9
2022-10-07T00:11:55.468Z,10
2022-10-07T00:14:55.449Z,13
2022-10-07T00:17:55.458Z,12
2022-10-07T00:20:55.439Z,10
2022-10-07T00:23:55.442Z,12
2022-10-07T00:25:55.438Z,9
2022-10-07T00:28:55.430Z,14
2022-10-07T00:31:57.283Z,11
2022-10-07T00:34:55.396Z,11
2022-10-07T00:36:55.427Z,14
2022-10-07T00:39:55.434Z,10
2022-10-07T00:41:55.455Z,9
2022-10-07T00:44:55.415Z,12
2022-10-07T00:46:55.455Z,17
2022-10-07T00:48:55.454Z,10
2022-10-07T00:51:55.462Z,11
2022-10-07T00:53:55.453Z,13
2022-10-07T00:56:55.477Z,9
2022-10-07T00:59:55.440Z,10
2022-10-07T01:02:55.504Z,10
2022-10-07T01:05:55.461Z,10
2022-10-07T01:08:55.445Z,12
2022-10-07T01:10:55.449Z,11
2022-10-07T01:13:55.468Z,9
2022-10-07T01:16:55.514Z,16
2022-10-07T01:18:55.434Z,12
2022-10-07T01:21:55.565Z,11
2022-10-07T01:24:55.434Z,11
2022-10-07T01:27:55.450Z,13
2022-10-07T01:30:55.499Z,10
2022-10-07T01:33:55.441Z,11
2022-10-07T01:35:55.449Z,16
2022-10-07T01:39:55.464Z,14
2022-10-07T01:41:55.493Z,16
2022-10-07T01:44:55.605Z,9
2022-10-07T01:47:55.442Z,11
2022-10-07T01:49:55.462Z,13
2022-10-07T01:52:55.459Z,10
2022-10-07T01:55:55.434Z,12
2022-10-07T01:58:55.478Z,12
2022-10-07T02:01:55.555Z,13
2022-10-07T02:03:55.504Z,11
2022-10-07T02:06:55.503Z,9
2022-10-07T02:08:55.467Z,10
2022-10-07T02:10:55.469Z,9
2022-10-07T02:13:55.457Z,10
2022-10-07T02:15:55.516Z,12
2022-10-07T02:18:55.450Z,11
2022-10-07T02:20:55.474Z,9
2022-10-07T02:22:55.454Z,10
2022-10-07T02:24:55.491Z,11
2022-10-07T02:27:55.455Z,8
2022-10-07T02:29:55.487Z,12
2022-10-07T02:32:55.436Z,11
2022-10-07T02:34:55.493Z,10
2022-10-07T02:37:55.437Z,9
2022-10-07T02:39:55.474Z,12
2022-10-07T02:41:55.770Z,12
2022-10-07T02:44:55.480Z,11
2022-10-07T02:47:55.454Z,11
2022-10-07T02:50:55.444Z,10
2022-10-07T02:52:55.442Z,14
2022-10-07T02:55:55.453Z,8
2022-10-07T02:57:55.436Z,11
2022-10-07T02:59:55.444Z,13
2022-10-07T03:02:55.455Z,10
2022-10-07T03:05:55.471Z,11
2022-10-07T03:07:55.458Z,11
2022-10-07T03:09:55.456Z,11
2022-10-07T03:12:55.468Z,10
2022-10-07T03:14:55.448Z,12
2022-10-07T03:16:55.519Z,13
2022-10-07T03:19:55.453Z,12
2022-10-07T03:21:55.453Z,14
2022-10-07T03:24:55.468Z,8
2022-10-07T03:27:55.480Z,9
2022-10-07T03:30:55.613Z,11
2022-10-07T03:33:55.461Z,14
2022-10-07T03:36:55.509Z,12
2022-10-07T03:40:55.473Z,21
2022-10-07T03:42:55.483Z,19
2022-10-07T03:45:55.479Z,25
2022-10-07T03:47:55.505Z,35
2022-10-07T03:49:55.668Z,59
2022-10-07T03:52:55.463Z,31
2022-10-07T03:55:55.485Z,18
2022-10-07T03:57:59.250Z,11
2022-10-07T04:00:55.474Z,11
2022-10-07T04:03:55.461Z,13
2022-10-07T04:05:55.501Z,11
2022-10-07T04:08:55.479Z,12
2022-10-07T04:11:55.476Z,16
2022-10-07T04:13:55.488Z,11
2022-10-07T04:15:55.516Z,11
2022-10-07T04:17:55.502Z,11
2022-10-07T04:20:55.472Z,12
2022-10-07T04:22:55.504Z,14
2022-10-07T04:25:55.471Z,13
2022-10-07T04:27:55.482Z,12
2022-10-07T04:30:55.472Z,11
2022-10-07T04:33:55.481Z,11
2022-10-07T04:36:55.471Z,9
2022-10-07T04:38:55.475Z,11
2022-10-07T04:41:55.483Z,15
2022-10-07T04:44:55.749Z,11
2022-10-07T04:47:55.478Z,11
2022-10-07T04:49:55.484Z,12
2022-10-07T04:51:55.513Z,11
2022-10-07T04:54:55.464Z,9
2022-10-07T04:56:55.512Z,12
2022-10-07T04:59:55.479Z,12
2022-10-07T05:01:55.590Z,11
2022-10-07T05:04:55.476Z,12
2022-10-07T05:06:55.487Z,14
2022-10-07T05:08:55.475Z,9
2022-10-07T05:11:55.472Z,11
2022-10-07T05:14:55.465Z,9
2022-10-07T05:16:55.498Z,11
2022-10-07T05:19:55.466Z,13
2022-10-07T05:21:55.487Z,12
2022-10-07T05:24:55.467Z,13
2022-10-07T05:26:55.526Z,12
2022-10-07T05:29:55.470Z,9
2022-10-07T05:31:55.476Z,9
2022-10-07T05:34:55.640Z,10
2022-10-07T05:37:55.968Z,9
2022-10-07T05:40:55.542Z,8
2022-10-07T05:43:55.450Z,10
2022-10-07T05:45:55.535Z,12
2022-10-07T05:48:55.494Z,13
2022-10-07T05:51:55.504Z,14
2022-10-07T05:55:55.465Z,11
2022-10-07T05:59:55.464Z,10
2022-10-07T06:02:55.614Z,12
2022-10-07T06:05:55.456Z,12
2022-10-07T06:07:55.481Z,10
2022-10-07T06:10:55.493Z,12
2022-10-07T06:12:55.527Z,11
2022-10-07T06:15:55.489Z,11
2022-10-07T06:18:55.500Z,12
2022-10-07T06:20:55.508Z,8
2022-10-07T06:23:55.480Z,13
2022-10-07T06:26:55.506Z,13
2022-10-07T06:29:55.460Z,9
2022-10-07T06:31:55.491Z,13
2022-10-07T06:34:55.760Z,10
2022-10-07T06:37:55.482Z,10
2022-10-07T06:39:59.429Z,12
2022-10-07T06:42:55.508Z,12
2022-10-07T06:45:55.520Z,11
2022-10-07T06:47:55.488Z,10
2022-10-07T06:49:55.505Z,13
2022-10-07T06:51:55.509Z,13
2022-10-07T06:53:55.526Z,11
2022-10-07T06:56:55.588Z,8
2022-10-07T06:59:55.529Z,10
2022-10-07T07:02:55.508Z,10
2022-10-07T07:05:55.485Z,12
2022-10-07T07:07:55.483Z,12
2022-10-07T07:09:55.495Z,12
2022-10-07T07:12:55.588Z,9
2022-10-07T07:15:55.502Z,13
2022-10-07T07:18:55.473Z,12
2022-10-07T07:20:55.534Z,10
2022-10-07T07:23:55.472Z,12
2022-10-07T07:25:55.502Z,13
2022-10-07T07:27:57.699Z,11
2022-10-07T07:30:55.532Z,10
2022-10-07T07:33:55.458Z,11
2022-10-07T07:35:55.497Z,10
2022-10-07T07:38:55.487Z,10
2022-10-07T07:40:55.496Z,9
2022-10-07T07:43:55.466Z,14
2022-10-07T07:45:55.588Z,9
2022-10-07T07:48:55.983Z,16
2022-10-07T07:51:55.522Z,10
2022-10-07T07:54:55.482Z,11
2022-10-07T07:56:55.539Z,9
2022-10-07T07:59:55.487Z,12
2022-10-07T08:01:55.533Z,10
2022-10-07T08:04:55.528Z,17
2022-10-07T08:08:55.522Z,15
2022-10-07T08:11:55.497Z,12
2022-10-07T08:14:55.457Z,10
2022-10-07T08:16:55.604Z,12
2022-10-07T08:19:55.471Z,10
2022-10-07T08:21:55.498Z,13
2022-10-07T08:24:55.526Z,11
2022-10-07T08:27:55.507Z,12
2022-10-07T08:30:55.547Z,12
2022-10-07T08:32:59.089Z,14
2022-10-07T08:35:55.509Z,13
2022-10-07T08:38:55.513Z,12
2022-10-07T08:40:55.546Z,12
2022-10-07T08:43:58.225Z,14
2022-10-07T08:46:55.483Z,13
2022-10-07T08:48:55.522Z,20
2022-10-07T08:51:55.489Z,19
2022-10-07T08:53:55.530Z,18
2022-10-07T08:56:55.478Z,24
2022-10-07T08:59:55.522Z,16
2022-10-07T09:03:55.544Z,19
2022-10-07T09:05:55.520Z,18
2022-10-07T09:08:55.477Z,20
2022-10-07T09:10:55.533Z,19
2022-10-07T09:13:55.532Z,20
2022-10-07T09:15:55.557Z,16
2022-10-07T09:18:55.472Z,20
2022-10-07T09:21:56.506Z,24
2022-10-07T09:23:55.542Z,23
2022-10-07T09:26:55.477Z,19
2022-10-07T09:28:55.497Z,20
2022-10-07T09:30:55.542Z,19
2022-10-07T09:33:55.512Z,19
2022-10-07T09:36:55.499Z,18
2022-10-07T09:38:55.500Z,19
2022-10-07T09:40:55.517Z,15
2022-10-07T09:43:55.553Z,19
2022-10-07T09:46:55.522Z,18
2022-10-07T09:48:55.519Z,21
2022-10-07T09:51:55.505Z,19
2022-10-07T09:53:55.547Z,19
2022-10-07T09:56:55.501Z,24
2022-10-07T09:58:55.528Z,20
2022-10-07T10:01:55.580Z,21
2022-10-07T10:03:55.549Z,19
2022-10-07T10:06:55.522Z,21
2022-10-07T10:09:55.518Z,22
2022-10-07T10:11:55.557Z,26
2022-10-07T10:14:55.547Z,19
2022-10-07T10:16:55.487Z,23
2022-10-07T10:18:55.537Z,23
2022-10-07T10:21:55.521Z,21
2022-10-07T10:24:55.524Z,22
2022-10-07T10:26:55.516Z,18
2022-10-07T10:29:55.508Z,18
2022-10-07T10:31:55.531Z,22
2022-10-07T10:34:55.497Z,23
2022-10-07T10:36:55.515Z,21
2022-10-07T10:38:55.543Z,32
2022-10-07T10:41:55.536Z,19
2022-10-07T10:44:55.529Z,21
2022-10-07T10:46:55.592Z,16
2022-10-07T10:49:55.525Z,17
2022-10-07T10:51:55.523Z,21
2022-10-07T10:54:55.501Z,19
2022-10-07T10:57:59.400Z,21
2022-10-07T11:00:59.533Z,21
2022-10-07T11:02:55.562Z,18
2022-10-07T11:04:55.525Z,17
2022-10-07T11:07:55.553Z,17
2022-10-07T11:10:56.691Z,18
2022-10-07T11:13:55.725Z,20
2022-10-07T11:16:55.522Z,31
2022-10-07T11:19:10.921Z,20
2022-10-07T11:21:55.538Z,17
2022-10-07T11:24:55.530Z,13
2022-10-07T11:26:55.525Z,16
2022-10-07T11:29:55.517Z,17
2022-10-07T11:31:55.551Z,19
2022-10-07T11:34:55.517Z,25
2022-10-07T11:36:55.567Z,21
2022-10-07T11:39:55.588Z,20
2022-10-07T11:42:55.514Z,16
2022-10-07T11:44:55.518Z,17
2022-10-07T11:47:55.523Z,17
2022-10-07T11:50:55.511Z,20
2022-10-07T11:52:55.544Z,19
2022-10-07T11:55:55.565Z,21
2022-10-07T11:57:55.595Z,18
2022-10-07T12:00:55.525Z,17
2022-10-07T12:02:55.557Z,16
2022-10-07T12:04:55.550Z,18
2022-10-07T12:07:55.540Z,18
2022-10-07T12:10:55.557Z,13
2022-10-07T12:13:55.506Z,17
2022-10-07T12:15:55.551Z,20
2022-10-07T12:17:55.548Z,19
2022-10-07T12:20:55.556Z,15
2022-10-07T12:22:55.541Z,19
2022-10-07T12:25:55.544Z,18
2022-10-07T12:27:55.546Z,20
2022-10-07T12:30:55.578Z,17
2022-10-07T12:33:55.503Z,18
2022-10-07T12:35:55.527Z,18
2022-10-07T12:37:55.569Z,16
2022-10-07T12:40:55.566Z,17
2022-10-07T12:42:55.546Z,21
2022-10-07T12:45:55.579Z,16
2022-10-07T12:47:55.547Z,17
2022-10-07T12:50:55.559Z,16
2022-10-07T12:53:55.559Z,13
2022-10-07T12:55:55.576Z,21
2022-10-07T12:58:55.568Z,20
2022-10-07T13:01:55.705Z,23
2022-10-07T13:04:55.529Z,19
2022-10-07T13:06:55.574Z,20
2022-10-07T13:09:55.551Z,25
2022-10-07T13:12:55.545Z,19
2022-10-07T13:14:55.564Z,19
2022-10-07T13:17:55.553Z,15
2022-10-07T13:19:55.550Z,14
2022-10-07T13:22:55.601Z,17
2022-10-07T13:25:55.533Z,18
2022-10-07T13:28:55.541Z,16
2022-10-07T13:30:55.600Z,14
2022-10-07T13:33:55.543Z,20
2022-10-07T13:36:55.558Z,16
2022-10-07T13:38:55.579Z,18
2022-10-07T13:41:55.605Z,19
2022-10-07T13:44:55.560Z,18
2022-10-07T13:46:55.558Z,19
2022-10-07T13:49:55.562Z,15
2022-10-07T13:52:55.620Z,17
2022-10-07T13:55:55.557Z,15
2022-10-07T13:57:55.622Z,19
2022-10-07T14:00:55.575Z,15
2022-10-07T14:02:55.812Z,20
2022-10-07T14:05:55.545Z,16
2022-10-07T14:07:55.560Z,15
2022-10-07T14:10:55.590Z,15
2022-10-07T14:12:55.590Z,15
2022-10-07T14:15:55.576Z,16
2022-10-07T14:17:56.601Z,12
2022-10-07T14:20:55.615Z,17
2022-10-07T14:23:55.565Z,18
2022-10-07T14:25:55.648Z,20
2022-10-07T14:28:55.600Z,15
2022-10-07T14:31:55.572Z,19
2022-10-07T14:34:55.585Z,17
2022-10-07T14:37:55.640Z,17
2022-10-07T14:40:55.575Z,18
2022-10-07T14:43:55.584Z,15
2022-10-07T14:45:55.582Z,16
2022-10-07T14:48:55.599Z,19
2022-10-07T14:50:55.620Z,14
2022-10-07T14:53:55.602Z,18
2022-10-07T14:57:11.235Z,16
2022-10-07T14:59:55.593Z,15
2022-10-07T15:02:55.557Z,19
2022-10-07T15:05:55.614Z,18
2022-10-07T15:08:55.561Z,19
2022-10-07T15:10:55.595Z,17
2022-10-07T15:13:55.581Z,18
2022-10-07T15:15:55.603Z,19
2022-10-07T15:18:55.576Z,19
2022-10-07T15:21:55.606Z,16
2022-10-07T15:24:55.580Z,17
2022-10-07T15:26:55.601Z,17
2022-10-07T15:29:55.627Z,22
2022-10-07T15:32:55.602Z,17
2022-10-07T15:35:55.582Z,20
2022-10-07T15:38:55.619Z,18
2022-10-07T15:40:55.597Z,18
2022-10-07T15:42:55.614Z,16
2022-10-07T15:45:55.690Z,17
2022-10-07T15:48:55.621Z,27
2022-10-07T15:51:55.603Z,16
2022-10-07T15:53:55.625Z,15
2022-10-07T15:55:55.630Z,17
2022-10-07T15:58:55.630Z,14
2022-10-07T16:01:55.685Z,21
2022-10-07T16:04:55.592Z,16
2022-10-07T16:06:55.604Z,14
2022-10-07T16:09:55.598Z,11
2022-10-07T16:11:55.595Z,17
2022-10-07T16:14:55.600Z,19
2022-10-07T16:17:55.645Z,17
2022-10-07T16:20:55.599Z,13
2022-10-07T16:23:55.588Z,22
2022-10-07T16:25:55.659Z,24
2022-10-07T16:28:55.602Z,23
2022-10-07T16:33:55.668Z,20
2022-10-07T16:36:55.642Z,23
2022-10-07T16:39:55.668Z,20
2022-10-07T16:42:55.633Z,17
2022-10-07T16:45:55.633Z,21
2022-10-07T16:48:55.638Z,20
2022-10-07T16:51:55.645Z,23
2022-10-07T16:53:55.656Z,26
2022-10-07T16:56:55.634Z,26
2022-10-07T16:59:55.664Z,28
2022-10-07T17:02:55.631Z,32
2022-10-07T17:05:55.619Z,25
2022-10-07T17:07:55.682Z,27
2022-10-07T17:10:55.630Z,38
2022-10-07T17:12:55.636Z,36
2022-10-07T17:15:55.680Z,36
2022-10-07T17:17:55.638Z,35
2022-10-07T17:20:55.605Z,30
2022-10-07T17:22:55.648Z,38
2022-10-07T17:25:55.667Z,41
2022-10-07T17:28:55.640Z,39
2022-10-07T17:31:55.609Z,42
2022-10-07T17:33:55.611Z,38
2022-10-07T17:35:55.613Z,39
2022-10-07T17:38:55.635Z,44
2022-10-07T17:41:55.619Z,42
2022-10-07T17:43:55.667Z,43
2022-10-07T17:46:55.683Z,37
2022-10-07T17:48:55.666Z,32
2022-10-07T17:51:55.682Z,30
2022-10-07T17:54:55.647Z,28
2022-10-07T17:57:55.940Z,23
2022-10-07T18:00:55.679Z,23
2022-10-07T18:02:55.659Z,24
2022-10-07T18:05:55.612Z,24
2022-10-07T18:07:55.630Z,24
2022-10-07T18:09:55.651Z,27
2022-10-07T18:12:55.650Z,24
2022-10-07T18:15:55.696Z,28
2022-10-07T18:17:55.657Z,26
2022-10-07T18:20:55.654Z,20
2022-10-07T18:23:55.665Z,26
2022-10-07T18:26:55.699Z,26
2022-10-07T18:29:55.665Z,32
2022-10-07T18:31:55.721Z,32
2022-10-07T18:33:55.756Z,30
2022-10-07T18:36:57.140Z,29
2022-10-07T18:39:55.676Z,23
2022-10-07T18:42:55.649Z,24
2022-10-07T18:44:55.635Z,22
2022-10-07T18:46:56.672Z,22
2022-10-07T18:48:55.634Z,25
2022-10-07T18:51:55.639Z,29
2022-10-07T18:53:55.647Z,27
2022-10-07T18:55:55.656Z,29
2022-10-07T18:58:55.667Z,32
2022-10-07T19:01:55.741Z,29
2022-10-07T19:03:55.673Z,30
2022-10-07T19:06:55.678Z,29
2022-10-07T19:09:55.663Z,31
2022-10-07T19:11:55.676Z,29
2022-10-07T19:14:55.691Z,26
2022-10-07T19:17:55.651Z,23
2022-10-07T19:19:55.657Z,23
2022-10-07T19:22:55.652Z,25
2022-10-07T19:24:55.658Z,25
2022-10-07T19:26:55.786Z,23
2022-10-07T19:29:55.649Z,27
2022-10-07T19:31:55.706Z,25
2022-10-07T19:34:55.676Z,27
2022-10-07T19:37:55.640Z,25
2022-10-07T19:39:55.682Z,25
2022-10-07T19:42:55.649Z,29
2022-10-07T19:45:55.732Z,26
2022-10-07T19:47:55.668Z,31
2022-10-07T19:49:55.684Z,28
2022-10-07T19:52:55.640Z,30
2022-10-07T19:54:55.647Z,23
2022-10-07T19:56:55.638Z,28
2022-10-07T19:58:55.646Z,33
2022-10-07T20:01:58.893Z,23
2022-10-07T20:04:55.700Z,27
2022-10-07T20:07:55.702Z,27
2022-10-07T20:10:55.682Z,27
2022-10-07T20:12:56.038Z,29
2022-10-07T20:15:58.970Z,26
2022-10-07T20:18:55.690Z,31
2022-10-07T20:21:55.622Z,31
2022-10-07T20:23:55.657Z,24
2022-10-07T20:26:55.647Z,26
2022-10-07T20:28:55.686Z,28
2022-10-07T20:31:55.729Z,24
2022-10-07T20:34:55.661Z,24
2022-10-07T20:36:55.676Z,24
2022-10-07T20:39:55.658Z,26
2022-10-07T20:42:55.673Z,23
2022-10-07T20:45:55.694Z,23
2022-10-07T20:47:55.687Z,23
2022-10-07T20:50:55.658Z,21
2022-10-07T20:52:55.680Z,24
2022-10-07T20:55:55.691Z,30
2022-10-07T20:58:55.669Z,27
2022-10-07T21:01:55.722Z,24
2022-10-07T21:03:55.688Z,26
2022-10-07T21:06:55.725Z,28
2022-10-07T21:08:55.714Z,25
2022-10-07T21:11:55.677Z,23
2022-10-07T21:14:55.681Z,20
2022-10-07T21:16:55.734Z,20
2022-10-07T21:19:55.681Z,25
2022-10-07T21:22:55.679Z,25
2022-10-07T21:24:55.700Z,21
2022-10-07T21:27:55.679Z,22
2022-10-07T21:29:55.695Z,22
2022-10-07T21:31:55.744Z,23
2022-10-07T21:34:55.710Z,24
2022-10-07T21:37:55.699Z,25
2022-10-07T21:40:55.686Z,19
2022-10-07T21:43:55.711Z,30
2022-10-07T21:46:55.672Z,27
2022-10-07T21:48:55.689Z,25
2022-10-07T21:51:55.776Z,30
2022-10-07T21:54:55.682Z,25
2022-10-07T21:56:55.740Z,28
2022-10-07T21:59:55.690Z,27
2022-10-07T22:02:55.729Z,20
2022-10-07T22:04:55.721Z,21
2022-10-07T22:07:55.694Z,25
2022-10-07T22:09:55.736Z,22
2022-10-07T22:12:55.679Z,31
2022-10-07T22:14:58.841Z,24
2022-10-07T22:17:56.062Z,23
2022-10-07T22:20:55.690Z,20
2022-10-07T22:23:56.046Z,21
2022-10-07T22:26:55.753Z,24
2022-10-07T22:29:55.734Z,23
2022-10-07T22:32:55.707Z,24
2022-10-07T22:34:55.701Z,28
2022-10-07T22:36:55.719Z,36
2022-10-07T22:39:55.729Z,24
2022-10-07T22:41:55.739Z,22
2022-10-07T22:44:55.694Z,24
2022-10-07T22:46:55.727Z,23
2022-10-07T22:49:55.717Z,26
2022-10-07T22:52:55.702Z,21
2022-10-07T22:54:55.723Z,24
2022-10-07T22:57:55.886Z,25
2022-10-07T23:00:55.698Z,26
2022-10-07T23:02:55.807Z,24
2022-10-07T23:05:55.719Z,31
2022-10-07T23:07:55.743Z,33
2022-10-07T23:10:55.738Z,25
2022-10-07T23:13:55.757Z,22
2022-10-07T23:15:55.784Z,22
2022-10-07T23:18:55.737Z,20
2022-10-07T23:21:55.842Z,21
2022-10-07T23:24:55.713Z,21
2022-10-07T23:26:55.801Z,23
2022-10-07T23:29:55.762Z,23
2022-10-07T23:31:55.795Z,18
2022-10-07T23:33:55.935Z,19
2022-10-07T23:36:55.696Z,26
2022-10-07T23:39:55.716Z,23
2022-10-07T23:41:55.740Z,21
2022-10-07T23:44:55.711Z,22
2022-10-07T23:46:55.868Z,26
2022-10-07T23:49:55.748Z,31
2022-10-07T23:51:55.743Z,32
2022-10-07T23:54:55.800Z,32
2022-10-07T23:57:55.743Z,34
2022-10-07T23:59:55.753Z,32
